SASJ/JUJ METAR and TAF weather

Enter ICAO airport designator
Station Type Date Time Source
SASJ METAR 2018/12/15 02:05 UTC NOAA

SASJ 150205Z 18010KT 6000 -TSRA SCT005 BKN035 FEW045CB 20/20 Q1017


Station Type Date Time Source
SASJ Decoded METAR 2018/12/15 02:05 UTC NOAA

Jujuy Aerodrome, Argentina (SASJ) 24-23S 065-05W 905M
Dec 14, 2018 - 09:05 PM EST / 2018.12.15 0205 UTC
Wind: from the S (180 degrees) at 12 MPH (10 KT):0
Visibility: 3 mile(s):0
Sky conditions: mostly cloudy
Weather: light rain with thunder; Cumulonimbus clouds observed
Temperature: 68 F (20 C)
Dew Point: 68 F (20 C)
Relative Humidity: 100%
Pressure (altimeter): 30.03 in. Hg (1017 hPa)
ob: SASJ 150205Z 18010KT 6000 -TSRA SCT005 BKN035 FEW045CB 20/20 Q1017
cycle: 2

Station Type Date Time Source
SASJ TAF 2018/12/15 00:00 UTC NOAA

TAF SASJ 142300Z 1500/1524 27005KT 5000 TSRA BKN020 SCT030CB TX26/1518Z TN19/1510Z
BECMG 1502/1505 29005KT 5000 RADZ OVC010 FEW040CB
BECMG 1511/1514 20010KT 9999 BKN025 FEW040TCU


Example: see airport list